sensor_id;sensor_type;location;lat;lon;timestamp;P1;durP1;ratioP1;P2;durP2;ratioP2
36989;SDS011;22898;52.102;5.776;2023-05-10T00:00:07;5.30;;;3.17;;
36989;SDS011;22898;52.102;5.776;2023-05-10T00:02:34;5.25;;;3.08;;
36989;SDS011;22898;52.102;5.776;2023-05-10T00:05:00;4.20;;;2.75;;
36989;SDS011;22898;52.102;5.776;2023-05-10T00:07:26;5.32;;;2.78;;
36989;SDS011;22898;52.102;5.776;2023-05-10T00:09:51;4.68;;;3.10;;
36989;SDS011;22898;52.102;5.776;2023-05-10T00:12:17;5.47;;;2.92;;
36989;SDS011;22898;52.102;5.776;2023-05-10T00:14:43;5.53;;;2.92;;
36989;SDS011;22898;52.102;5.776;2023-05-10T00:17:08;5.43;;;3.13;;
36989;SDS011;22898;52.102;5.776;2023-05-10T00:19:34;6.10;;;2.83;;
36989;SDS011;22898;52.102;5.776;2023-05-10T00:21:59;4.55;;;3.25;;
36989;SDS011;22898;52.102;5.776;2023-05-10T00:24:25;6.38;;;3.30;;
36989;SDS011;22898;52.102;5.776;2023-05-10T00:26:50;6.20;;;4.25;;
36989;SDS011;22898;52.102;5.776;2023-05-10T00:29:16;5.53;;;3.30;;
36989;SDS011;22898;52.102;5.776;2023-05-10T00:31:41;6.25;;;3.72;;
36989;SDS011;22898;52.102;5.776;2023-05-10T00:34:07;7.68;;;4.88;;
36989;SDS011;22898;52.102;5.776;2023-05-10T00:36:32;4.82;;;2.90;;
36989;SDS011;22898;52.102;5.776;2023-05-10T00:38:58;10.70;;;6.05;;
36989;SDS011;22898;52.102;5.776;2023-05-10T00:41:24;7.80;;;4.75;;
36989;SDS011;22898;52.102;5.776;2023-05-10T00:43:50;5.78;;;4.30;;
36989;SDS011;22898;52.102;5.776;2023-05-10T00:46:15;7.97;;;3.85;;
36989;SDS011;22898;52.102;5.776;2023-05-10T00:48:42;10.65;;;5.78;;
36989;SDS011;22898;52.102;5.776;2023-05-10T00:51:09;9.70;;;4.18;;
36989;SDS011;22898;52.102;5.776;2023-05-10T00:53:35;9.07;;;4.75;;
36989;SDS011;22898;52.102;5.776;2023-05-10T00:56:00;7.97;;;5.05;;
36989;SDS011;22898;52.102;5.776;2023-05-10T00:58:28;7.63;;;4.18;;
36989;SDS011;22898;52.102;5.776;2023-05-10T01:00:55;8.02;;;5.50;;
36989;SDS011;22898;52.102;5.776;2023-05-10T01:03:22;8.35;;;5.28;;
36989;SDS011;22898;52.102;5.776;2023-05-10T01:05:48;9.57;;;5.32;;
36989;SDS011;22898;52.102;5.776;2023-05-10T01:08:15;9.55;;;5.57;;
36989;SDS011;22898;52.102;5.776;2023-05-10T01:10:41;6.78;;;4.03;;
36989;SDS011;22898;52.102;5.776;2023-05-10T01:13:07;7.50;;;5.28;;
36989;SDS011;22898;52.102;5.776;2023-05-10T01:15:33;7.72;;;4.55;;
36989;SDS011;22898;52.102;5.776;2023-05-10T01:18:00;8.63;;;5.20;;
36989;SDS011;22898;52.102;5.776;2023-05-10T01:20:28;8.35;;;5.65;;
36989;SDS011;22898;52.102;5.776;2023-05-10T01:23:16;7.35;;;4.55;;
36989;SDS011;22898;52.102;5.776;2023-05-10T01:28:46;7.35;;;5.15;;
36989;SDS011;22898;52.102;5.776;2023-05-10T01:33:56;10.40;;;6.88;;
36989;SDS011;22898;52.102;5.776;2023-05-10T01:36:40;15.63;;;8.00;;
36989;SDS011;22898;52.102;5.776;2023-05-10T01:39:15;9.77;;;4.80;;
36989;SDS011;22898;52.102;5.776;2023-05-10T01:42:03;7.45;;;5.50;;
36989;SDS011;22898;52.102;5.776;2023-05-10T01:44:40;9.50;;;6.70;;
36989;SDS011;22898;52.102;5.776;2023-05-10T01:49:55;8.65;;;4.97;;
36989;SDS011;22898;52.102;5.776;2023-05-10T01:52:25;11.38;;;5.97;;
36989;SDS011;22898;52.102;5.776;2023-05-10T01:54:55;10.90;;;5.72;;
36989;SDS011;22898;52.102;5.776;2023-05-10T01:57:25;14.15;;;7.20;;
36989;SDS011;22898;52.102;5.776;2023-05-10T01:59:56;8.35;;;5.20;;
36989;SDS011;22898;52.102;5.776;2023-05-10T02:02:23;14.38;;;6.07;;
36989;SDS011;22898;52.102;5.776;2023-05-10T02:04:51;13.45;;;6.88;;
36989;SDS011;22898;52.102;5.776;2023-05-10T02:07:18;12.18;;;6.32;;
36989;SDS011;22898;52.102;5.776;2023-05-10T02:09:45;10.57;;;6.13;;
36989;SDS011;22898;52.102;5.776;2023-05-10T02:12:13;12.60;;;8.07;;
36989;SDS011;22898;52.102;5.776;2023-05-10T02:14:40;10.45;;;7.07;;
36989;SDS011;22898;52.102;5.776;2023-05-10T02:17:07;13.25;;;7.05;;
36989;SDS011;22898;52.102;5.776;2023-05-10T02:19:34;9.50;;;5.47;;
36989;SDS011;22898;52.102;5.776;2023-05-10T02:22:02;13.07;;;7.47;;
36989;SDS011;22898;52.102;5.776;2023-05-10T02:24:30;11.25;;;7.03;;
36989;SDS011;22898;52.102;5.776;2023-05-10T02:26:57;14.00;;;6.80;;
36989;SDS011;22898;52.102;5.776;2023-05-10T02:29:24;18.40;;;7.43;;
36989;SDS011;22898;52.102;5.776;2023-05-10T02:31:52;9.35;;;6.40;;
36989;SDS011;22898;52.102;5.776;2023-05-10T02:34:20;14.13;;;7.25;;
36989;SDS011;22898;52.102;5.776;2023-05-10T02:36:47;11.02;;;7.13;;
36989;SDS011;22898;52.102;5.776;2023-05-10T02:39:13;12.73;;;7.70;;
36989;SDS011;22898;52.102;5.776;2023-05-10T02:41:40;11.15;;;6.75;;
36989;SDS011;22898;52.102;5.776;2023-05-10T02:44:08;12.40;;;6.00;;
36989;SDS011;22898;52.102;5.776;2023-05-10T02:46:35;11.75;;;5.82;;
36989;SDS011;22898;52.102;5.776;2023-05-10T02:49:02;9.90;;;6.32;;
36989;SDS011;22898;52.102;5.776;2023-05-10T02:51:30;14.07;;;6.68;;
36989;SDS011;22898;52.102;5.776;2023-05-10T02:53:59;12.88;;;6.70;;
36989;SDS011;22898;52.102;5.776;2023-05-10T02:56:52;8.90;;;6.47;;
36989;SDS011;22898;52.102;5.776;2023-05-10T02:59:22;7.60;;;6.07;;
36989;SDS011;22898;52.102;5.776;2023-05-10T03:01:47;8.90;;;6.18;;
36989;SDS011;22898;52.102;5.776;2023-05-10T03:04:13;11.20;;;7.35;;
36989;SDS011;22898;52.102;5.776;2023-05-10T03:06:39;11.80;;;7.75;;
36989;SDS011;22898;52.102;5.776;2023-05-10T03:09:04;12.55;;;6.57;;
36989;SDS011;22898;52.102;5.776;2023-05-10T03:11:41;7.07;;;5.57;;
36989;SDS011;22898;52.102;5.776;2023-05-10T03:16:46;10.80;;;7.10;;
36989;SDS011;22898;52.102;5.776;2023-05-10T03:19:19;14.13;;;8.27;;
36989;SDS011;22898;52.102;5.776;2023-05-10T03:21:50;11.00;;;5.63;;
36989;SDS011;22898;52.102;5.776;2023-05-10T03:24:18;10.98;;;5.85;;
36989;SDS011;22898;52.102;5.776;2023-05-10T03:26:47;11.13;;;6.95;;
36989;SDS011;22898;52.102;5.776;2023-05-10T03:29:15;12.50;;;6.60;;
36989;SDS011;22898;52.102;5.776;2023-05-10T03:31:42;11.93;;;7.88;;
36989;SDS011;22898;52.102;5.776;2023-05-10T03:34:07;11.15;;;7.15;;
36989;SDS011;22898;52.102;5.776;2023-05-10T03:36:33;13.52;;;8.75;;
36989;SDS011;22898;52.102;5.776;2023-05-10T03:38:59;9.48;;;6.32;;
36989;SDS011;22898;52.102;5.776;2023-05-10T03:41:24;15.35;;;8.63;;
36989;SDS011;22898;52.102;5.776;2023-05-10T03:43:50;12.00;;;5.57;;
36989;SDS011;22898;52.102;5.776;2023-05-10T03:46:16;14.60;;;8.10;;
36989;SDS011;22898;52.102;5.776;2023-05-10T03:48:42;8.18;;;6.22;;
36989;SDS011;22898;52.102;5.776;2023-05-10T03:51:07;11.95;;;6.82;;
36989;SDS011;22898;52.102;5.776;2023-05-10T03:53:33;8.98;;;5.57;;
36989;SDS011;22898;52.102;5.776;2023-05-10T03:55:59;13.05;;;6.97;;
36989;SDS011;22898;52.102;5.776;2023-05-10T03:58:24;8.00;;;5.25;;
36989;SDS011;22898;52.102;5.776;2023-05-10T04:00:50;11.20;;;6.47;;
36989;SDS011;22898;52.102;5.776;2023-05-10T04:03:16;11.95;;;6.35;;
36989;SDS011;22898;52.102;5.776;2023-05-10T04:05:42;8.40;;;5.03;;
36989;SDS011;22898;52.102;5.776;2023-05-10T04:08:08;9.50;;;6.30;;
36989;SDS011;22898;52.102;5.776;2023-05-10T04:10:33;11.60;;;6.18;;
36989;SDS011;22898;52.102;5.776;2023-05-10T04:13:00;10.57;;;6.85;;
36989;SDS011;22898;52.102;5.776;2023-05-10T04:15:25;17.75;;;7.30;;
36989;SDS011;22898;52.102;5.776;2023-05-10T04:17:51;11.32;;;6.95;;
36989;SDS011;22898;52.102;5.776;2023-05-10T04:20:17;7.07;;;5.05;;
36989;SDS011;22898;52.102;5.776;2023-05-10T04:22:42;18.95;;;9.73;;
36989;SDS011;22898;52.102;5.776;2023-05-10T04:25:08;17.05;;;9.38;;
36989;SDS011;22898;52.102;5.776;2023-05-10T04:27:34;11.00;;;5.97;;
36989;SDS011;22898;52.102;5.776;2023-05-10T04:29:59;16.55;;;7.38;;
36989;SDS011;22898;52.102;5.776;2023-05-10T04:32:25;13.27;;;6.00;;
36989;SDS011;22898;52.102;5.776;2023-05-10T04:34:50;14.52;;;8.80;;
36989;SDS011;22898;52.102;5.776;2023-05-10T04:37:17;9.95;;;6.65;;
36989;SDS011;22898;52.102;5.776;2023-05-10T04:39:43;11.65;;;7.07;;
36989;SDS011;22898;52.102;5.776;2023-05-10T04:42:09;12.45;;;7.28;;
36989;SDS011;22898;52.102;5.776;2023-05-10T04:44:34;14.57;;;7.15;;
36989;SDS011;22898;52.102;5.776;2023-05-10T04:47:01;15.00;;;6.47;;
36989;SDS011;22898;52.102;5.776;2023-05-10T04:49:27;13.13;;;6.95;;
36989;SDS011;22898;52.102;5.776;2023-05-10T04:51:53;15.10;;;8.30;;
36989;SDS011;22898;52.102;5.776;2023-05-10T04:54:18;12.02;;;6.53;;
36989;SDS011;22898;52.102;5.776;2023-05-10T04:56:44;17.13;;;8.43;;
36989;SDS011;22898;52.102;5.776;2023-05-10T04:59:09;17.08;;;8.65;;
36989;SDS011;22898;52.102;5.776;2023-05-10T05:01:35;14.35;;;6.47;;
36989;SDS011;22898;52.102;5.776;2023-05-10T05:04:01;12.82;;;8.32;;
36989;SDS011;22898;52.102;5.776;2023-05-10T05:06:26;9.50;;;6.78;;
36989;SDS011;22898;52.102;5.776;2023-05-10T05:08:52;11.90;;;6.57;;
36989;SDS011;22898;52.102;5.776;2023-05-10T05:11:18;11.23;;;6.90;;
36989;SDS011;22898;52.102;5.776;2023-05-10T05:13:44;17.40;;;8.43;;
36989;SDS011;22898;52.102;5.776;2023-05-10T05:16:09;11.85;;;7.57;;
36989;SDS011;22898;52.102;5.776;2023-05-10T05:18:36;9.27;;;5.90;;
36989;SDS011;22898;52.102;5.776;2023-05-10T05:21:01;18.00;;;8.25;;
36989;SDS011;22898;52.102;5.776;2023-05-10T05:23:27;9.68;;;6.63;;
36989;SDS011;22898;52.102;5.776;2023-05-10T05:25:53;12.70;;;6.05;;
36989;SDS011;22898;52.102;5.776;2023-05-10T05:28:19;11.00;;;6.35;;
36989;SDS011;22898;52.102;5.776;2023-05-10T05:30:46;17.05;;;8.63;;
36989;SDS011;22898;52.102;5.776;2023-05-10T05:33:15;11.80;;;6.95;;
36989;SDS011;22898;52.102;5.776;2023-05-10T05:35:40;12.70;;;6.63;;
36989;SDS011;22898;52.102;5.776;2023-05-10T05:38:07;11.63;;;6.35;;
36989;SDS011;22898;52.102;5.776;2023-05-10T05:40:33;9.50;;;6.93;;
36989;SDS011;22898;52.102;5.776;2023-05-10T05:42:59;11.20;;;6.93;;
36989;SDS011;22898;52.102;5.776;2023-05-10T05:45:24;11.85;;;7.10;;
36989;SDS011;22898;52.102;5.776;2023-05-10T05:47:50;12.77;;;7.13;;
36989;SDS011;22898;52.102;5.776;2023-05-10T05:50:15;11.77;;;6.45;;
36989;SDS011;22898;52.102;5.776;2023-05-10T05:52:41;19.60;;;8.63;;
36989;SDS011;22898;52.102;5.776;2023-05-10T05:55:07;11.07;;;6.65;;
36989;SDS011;22898;52.102;5.776;2023-05-10T05:57:32;15.60;;;6.75;;
36989;SDS011;22898;52.102;5.776;2023-05-10T05:59:58;14.93;;;8.50;;
36989;SDS011;22898;52.102;5.776;2023-05-10T06:02:24;15.80;;;9.43;;
36989;SDS011;22898;52.102;5.776;2023-05-10T06:04:50;14.05;;;7.15;;
36989;SDS011;22898;52.102;5.776;2023-05-10T06:07:15;16.50;;;8.63;;
36989;SDS011;22898;52.102;5.776;2023-05-10T06:09:41;15.90;;;7.90;;
36989;SDS011;22898;52.102;5.776;2023-05-10T06:12:06;16.05;;;7.78;;
36989;SDS011;22898;52.102;5.776;2023-05-10T06:14:32;13.60;;;8.40;;
36989;SDS011;22898;52.102;5.776;2023-05-10T06:16:58;13.07;;;7.85;;
36989;SDS011;22898;52.102;5.776;2023-05-10T06:19:24;13.02;;;7.68;;
36989;SDS011;22898;52.102;5.776;2023-05-10T06:21:51;13.70;;;7.10;;
36989;SDS011;22898;52.102;5.776;2023-05-10T06:24:16;12.57;;;8.15;;
36989;SDS011;22898;52.102;5.776;2023-05-10T06:26:42;10.07;;;7.75;;
36989;SDS011;22898;52.102;5.776;2023-05-10T06:29:07;19.38;;;7.72;;
36989;SDS011;22898;52.102;5.776;2023-05-10T06:31:33;15.27;;;9.65;;
36989;SDS011;22898;52.102;5.776;2023-05-10T06:33:58;16.98;;;8.57;;
36989;SDS011;22898;52.102;5.776;2023-05-10T06:36:24;12.43;;;7.55;;
36989;SDS011;22898;52.102;5.776;2023-05-10T06:38:51;25.85;;;9.35;;
36989;SDS011;22898;52.102;5.776;2023-05-10T06:41:16;20.60;;;10.50;;
36989;SDS011;22898;52.102;5.776;2023-05-10T06:43:42;15.40;;;8.05;;
36989;SDS011;22898;52.102;5.776;2023-05-10T06:46:08;14.80;;;7.95;;
36989;SDS011;22898;52.102;5.776;2023-05-10T06:48:34;20.73;;;6.35;;
36989;SDS011;22898;52.102;5.776;2023-05-10T06:50:59;15.23;;;8.43;;
36989;SDS011;22898;52.102;5.776;2023-05-10T06:53:25;9.77;;;5.75;;
36989;SDS011;22898;52.102;5.776;2023-05-10T06:55:50;13.80;;;8.32;;
36989;SDS011;22898;52.102;5.776;2023-05-10T06:58:16;18.42;;;10.50;;
36989;SDS011;22898;52.102;5.776;2023-05-10T07:00:41;14.82;;;7.78;;
36989;SDS011;22898;52.102;5.776;2023-05-10T07:03:09;12.57;;;7.43;;
36989;SDS011;22898;52.102;5.776;2023-05-10T07:05:35;10.60;;;6.50;;
36989;SDS011;22898;52.102;5.776;2023-05-10T07:08:01;10.77;;;6.13;;
36989;SDS011;22898;52.102;5.776;2023-05-10T07:10:26;19.30;;;6.97;;
36989;SDS011;22898;52.102;5.776;2023-05-10T07:12:52;12.75;;;7.40;;
36989;SDS011;22898;52.102;5.776;2023-05-10T07:15:17;11.98;;;6.35;;
36989;SDS011;22898;52.102;5.776;2023-05-10T07:17:43;11.73;;;5.93;;
36989;SDS011;22898;52.102;5.776;2023-05-10T07:20:09;14.45;;;7.18;;
36989;SDS011;22898;52.102;5.776;2023-05-10T07:22:34;15.65;;;8.32;;
36989;SDS011;22898;52.102;5.776;2023-05-10T07:25:00;12.93;;;6.63;;
36989;SDS011;22898;52.102;5.776;2023-05-10T07:27:26;11.77;;;7.20;;
36989;SDS011;22898;52.102;5.776;2023-05-10T07:29:51;9.80;;;6.47;;
36989;SDS011;22898;52.102;5.776;2023-05-10T07:32:17;9.25;;;5.70;;
36989;SDS011;22898;52.102;5.776;2023-05-10T07:34:42;14.52;;;7.65;;
36989;SDS011;22898;52.102;5.776;2023-05-10T07:37:08;18.52;;;8.45;;
36989;SDS011;22898;52.102;5.776;2023-05-10T07:39:33;13.40;;;7.63;;
36989;SDS011;22898;52.102;5.776;2023-05-10T07:41:59;11.52;;;7.38;;
36989;SDS011;22898;52.102;5.776;2023-05-10T07:44:24;10.35;;;5.53;;
36989;SDS011;22898;52.102;5.776;2023-05-10T07:46:50;14.90;;;7.28;;
36989;SDS011;22898;52.102;5.776;2023-05-10T07:49:16;15.02;;;7.07;;
36989;SDS011;22898;52.102;5.776;2023-05-10T07:51:41;15.30;;;5.28;;
36989;SDS011;22898;52.102;5.776;2023-05-10T07:54:07;8.88;;;5.75;;
36989;SDS011;22898;52.102;5.776;2023-05-10T07:56:33;12.82;;;4.90;;
36989;SDS011;22898;52.102;5.776;2023-05-10T07:58:59;5.80;;;4.35;;
36989;SDS011;22898;52.102;5.776;2023-05-10T08:01:25;7.10;;;4.68;;
36989;SDS011;22898;52.102;5.776;2023-05-10T08:03:52;8.77;;;5.70;;
36989;SDS011;22898;52.102;5.776;2023-05-10T08:06:18;10.13;;;4.60;;
36989;SDS011;22898;52.102;5.776;2023-05-10T08:08:45;10.13;;;5.70;;
36989;SDS011;22898;52.102;5.776;2023-05-10T08:11:14;9.13;;;4.40;;
36989;SDS011;22898;52.102;5.776;2023-05-10T08:13:41;6.10;;;3.95;;
36989;SDS011;22898;52.102;5.776;2023-05-10T08:16:06;8.25;;;4.43;;
36989;SDS011;22898;52.102;5.776;2023-05-10T08:18:32;5.68;;;3.42;;
36989;SDS011;22898;52.102;5.776;2023-05-10T08:20:58;5.68;;;3.40;;
36989;SDS011;22898;52.102;5.776;2023-05-10T08:23:23;3.80;;;2.65;;
36989;SDS011;22898;52.102;5.776;2023-05-10T08:25:49;6.28;;;3.20;;
36989;SDS011;22898;52.102;5.776;2023-05-10T08:28:14;5.05;;;3.42;;
36989;SDS011;22898;52.102;5.776;2023-05-10T08:30:40;9.52;;;4.45;;
36989;SDS011;22898;52.102;5.776;2023-05-10T08:33:05;9.95;;;3.95;;
36989;SDS011;22898;52.102;5.776;2023-05-10T08:35:31;6.25;;;4.25;;
36989;SDS011;22898;52.102;5.776;2023-05-10T08:37:58;4.85;;;3.95;;
36989;SDS011;22898;52.102;5.776;2023-05-10T08:40:23;5.85;;;3.05;;
36989;SDS011;22898;52.102;5.776;2023-05-10T08:42:51;3.65;;;2.70;;
36989;SDS011;22898;52.102;5.776;2023-05-10T08:45:27;6.00;;;3.33;;
36989;SDS011;22898;52.102;5.776;2023-05-10T08:47:58;6.20;;;3.95;;
36989;SDS011;22898;52.102;5.776;2023-05-10T08:50:26;3.42;;;2.15;;
36989;SDS011;22898;52.102;5.776;2023-05-10T08:52:52;4.15;;;2.97;;
36989;SDS011;22898;52.102;5.776;2023-05-10T08:55:23;7.45;;;3.53;;
36989;SDS011;22898;52.102;5.776;2023-05-10T08:57:49;4.20;;;2.83;;
36989;SDS011;22898;52.102;5.776;2023-05-10T09:00:15;6.38;;;3.20;;
36989;SDS011;22898;52.102;5.776;2023-05-10T09:02:42;3.60;;;3.08;;
36989;SDS011;22898;52.102;5.776;2023-05-10T09:05:08;3.95;;;2.50;;
36989;SDS011;22898;52.102;5.776;2023-05-10T09:07:35;5.38;;;2.67;;
36989;SDS011;22898;52.102;5.776;2023-05-10T09:10:01;7.97;;;4.60;;
36989;SDS011;22898;52.102;5.776;2023-05-10T09:12:27;4.00;;;3.03;;
36989;SDS011;22898;52.102;5.776;2023-05-10T09:14:53;3.95;;;2.95;;
36989;SDS011;22898;52.102;5.776;2023-05-10T09:17:21;4.70;;;2.92;;
36989;SDS011;22898;52.102;5.776;2023-05-10T09:19:48;6.35;;;3.30;;
36989;SDS011;22898;52.102;5.776;2023-05-10T09:22:14;5.80;;;2.55;;
36989;SDS011;22898;52.102;5.776;2023-05-10T09:24:39;4.38;;;1.95;;
36989;SDS011;22898;52.102;5.776;2023-05-10T09:27:10;7.22;;;4.18;;
36989;SDS011;22898;52.102;5.776;2023-05-10T09:29:42;5.15;;;2.35;;
36989;SDS011;22898;52.102;5.776;2023-05-10T09:32:08;5.68;;;2.88;;
36989;SDS011;22898;52.102;5.776;2023-05-10T09:34:33;3.88;;;2.03;;
36989;SDS011;22898;52.102;5.776;2023-05-10T09:37:01;5.45;;;3.03;;
36989;SDS011;22898;52.102;5.776;2023-05-10T09:39:36;6.35;;;3.17;;
36989;SDS011;22898;52.102;5.776;2023-05-10T09:42:03;3.45;;;2.50;;
36989;SDS011;22898;52.102;5.776;2023-05-10T09:44:33;4.15;;;2.58;;
36989;SDS011;22898;52.102;5.776;2023-05-10T09:47:01;5.30;;;3.17;;
36989;SDS011;22898;52.102;5.776;2023-05-10T09:49:27;8.43;;;3.65;;
36989;SDS011;22898;52.102;5.776;2023-05-10T09:54:45;5.78;;;3.17;;
36989;SDS011;22898;52.102;5.776;2023-05-10T09:57:19;9.63;;;3.65;;
36989;SDS011;22898;52.102;5.776;2023-05-10T09:59:47;6.07;;;3.63;;
36989;SDS011;22898;52.102;5.776;2023-05-10T10:02:12;5.35;;;2.70;;
36989;SDS011;22898;52.102;5.776;2023-05-10T10:04:42;5.32;;;2.38;;
36989;SDS011;22898;52.102;5.776;2023-05-10T10:07:07;3.33;;;2.35;;
36989;SDS011;22898;52.102;5.776;2023-05-10T10:09:34;5.45;;;3.88;;
36989;SDS011;22898;52.102;5.776;2023-05-10T10:12:00;5.55;;;3.67;;
36989;SDS011;22898;52.102;5.776;2023-05-10T10:14:26;6.18;;;3.70;;
36989;SDS011;22898;52.102;5.776;2023-05-10T10:16:53;5.63;;;3.60;;
36989;SDS011;22898;52.102;5.776;2023-05-10T10:19:19;5.22;;;3.30;;
36989;SDS011;22898;52.102;5.776;2023-05-10T10:21:45;5.38;;;3.05;;
36989;SDS011;22898;52.102;5.776;2023-05-10T10:24:12;5.95;;;3.67;;
36989;SDS011;22898;52.102;5.776;2023-05-10T10:26:37;4.78;;;3.28;;
36989;SDS011;22898;52.102;5.776;2023-05-10T10:32:03;5.70;;;3.20;;
36989;SDS011;22898;52.102;5.776;2023-05-10T10:34:47;4.63;;;2.70;;
36989;SDS011;22898;52.102;5.776;2023-05-10T10:37:13;7.35;;;3.88;;
36989;SDS011;22898;52.102;5.776;2023-05-10T10:39:38;5.05;;;2.97;;
36989;SDS011;22898;52.102;5.776;2023-05-10T10:42:04;5.00;;;3.22;;
36989;SDS011;22898;52.102;5.776;2023-05-10T10:50:02;7.47;;;3.15;;
36989;SDS011;22898;52.102;5.776;2023-05-10T10:52:31;5.55;;;3.00;;
36989;SDS011;22898;52.102;5.776;2023-05-10T10:55:01;4.10;;;2.33;;
36989;SDS011;22898;52.102;5.776;2023-05-10T10:57:32;3.53;;;2.22;;
36989;SDS011;22898;52.102;5.776;2023-05-10T11:05:47;3.10;;;2.28;;
36989;SDS011;22898;52.102;5.776;2023-05-10T11:08:18;3.92;;;1.92;;
36989;SDS011;22898;52.102;5.776;2023-05-10T11:13:31;3.63;;;2.20;;
36989;SDS011;22898;52.102;5.776;2023-05-10T11:18:56;2.72;;;2.17;;
36989;SDS011;22898;52.102;5.776;2023-05-10T11:21:32;3.67;;;2.17;;
36989;SDS011;22898;52.102;5.776;2023-05-10T11:23:59;1.70;;;1.17;;
36989;SDS011;22898;52.102;5.776;2023-05-10T11:26:31;4.15;;;2.63;;
36989;SDS011;22898;52.102;5.776;2023-05-10T11:28:58;2.92;;;1.95;;
36989;SDS011;22898;52.102;5.776;2023-05-10T11:31:25;4.00;;;2.35;;
36989;SDS011;22898;52.102;5.776;2023-05-10T11:33:55;4.57;;;2.30;;
36989;SDS011;22898;52.102;5.776;2023-05-10T11:36:29;3.75;;;2.50;;
36989;SDS011;22898;52.102;5.776;2023-05-10T11:38:58;3.50;;;1.85;;
36989;SDS011;22898;52.102;5.776;2023-05-10T11:41:24;3.33;;;1.65;;
36989;SDS011;22898;52.102;5.776;2023-05-10T11:43:54;2.75;;;1.83;;
36989;SDS011;22898;52.102;5.776;2023-05-10T11:46:21;2.55;;;1.83;;
36989;SDS011;22898;52.102;5.776;2023-05-10T11:48:52;2.13;;;1.88;;
36989;SDS011;22898;52.102;5.776;2023-05-10T11:51:20;3.20;;;2.22;;
36989;SDS011;22898;52.102;5.776;2023-05-10T11:53:50;2.25;;;1.63;;
36989;SDS011;22898;52.102;5.776;2023-05-10T11:56:17;2.60;;;2.00;;
36989;SDS011;22898;52.102;5.776;2023-05-10T11:58:43;3.78;;;2.22;;
36989;SDS011;22898;52.102;5.776;2023-05-10T12:01:09;6.00;;;2.90;;
36989;SDS011;22898;52.102;5.776;2023-05-10T12:03:35;3.38;;;2.15;;
36989;SDS011;22898;52.102;5.776;2023-05-10T12:06:02;2.88;;;1.92;;
36989;SDS011;22898;52.102;5.776;2023-05-10T12:08:32;3.70;;;1.90;;
36989;SDS011;22898;52.102;5.776;2023-05-10T12:11:05;4.05;;;2.45;;
36989;SDS011;22898;52.102;5.776;2023-05-10T12:13:32;3.85;;;2.10;;
36989;SDS011;22898;52.102;5.776;2023-05-10T12:16:12;4.47;;;2.30;;
36989;SDS011;22898;52.102;5.776;2023-05-10T12:18:40;2.85;;;1.85;;
36989;SDS011;22898;52.102;5.776;2023-05-10T12:21:07;5.22;;;2.45;;
36989;SDS011;22898;52.102;5.776;2023-05-10T12:23:35;5.05;;;2.97;;
36989;SDS011;22898;52.102;5.776;2023-05-10T12:26:01;2.78;;;2.05;;
36989;SDS011;22898;52.102;5.776;2023-05-10T12:28:29;5.70;;;2.15;;
36989;SDS011;22898;52.102;5.776;2023-05-10T12:30:56;3.15;;;1.85;;
36989;SDS011;22898;52.102;5.776;2023-05-10T12:33:23;5.55;;;2.90;;
36989;SDS011;22898;52.102;5.776;2023-05-10T12:35:50;2.63;;;1.73;;
36989;SDS011;22898;52.102;5.776;2023-05-10T12:40:54;3.05;;;1.60;;
36989;SDS011;22898;52.102;5.776;2023-05-10T12:43:20;2.13;;;1.58;;
36989;SDS011;22898;52.102;5.776;2023-05-10T12:45:46;4.13;;;2.28;;
36989;SDS011;22898;52.102;5.776;2023-05-10T12:48:13;3.85;;;2.30;;
36989;SDS011;22898;52.102;5.776;2023-05-10T12:50:40;5.55;;;2.90;;
36989;SDS011;22898;52.102;5.776;2023-05-10T12:53:05;3.20;;;2.22;;
36989;SDS011;22898;52.102;5.776;2023-05-10T12:55:31;2.28;;;1.90;;
36989;SDS011;22898;52.102;5.776;2023-05-10T12:57:56;2.13;;;1.88;;
36989;SDS011;22898;52.102;5.776;2023-05-10T13:00:22;3.70;;;2.33;;
36989;SDS011;22898;52.102;5.776;2023-05-10T13:02:47;5.43;;;2.78;;
36989;SDS011;22898;52.102;5.776;2023-05-10T13:05:13;4.88;;;2.70;;
36989;SDS011;22898;52.102;5.776;2023-05-10T13:07:38;3.50;;;2.28;;
36989;SDS011;22898;52.102;5.776;2023-05-10T13:10:05;2.72;;;1.95;;
36989;SDS011;22898;52.102;5.776;2023-05-10T13:12:31;3.63;;;2.22;;
36989;SDS011;22898;52.102;5.776;2023-05-10T13:14:57;2.58;;;2.20;;
36989;SDS011;22898;52.102;5.776;2023-05-10T13:17:22;5.18;;;2.67;;
36989;SDS011;22898;52.102;5.776;2023-05-10T13:19:48;3.33;;;1.95;;
36989;SDS011;22898;52.102;5.776;2023-05-10T13:22:14;2.95;;;2.15;;
36989;SDS011;22898;52.102;5.776;2023-05-10T13:24:39;7.05;;;2.90;;
36989;SDS011;22898;52.102;5.776;2023-05-10T13:27:05;4.13;;;2.30;;
36989;SDS011;22898;52.102;5.776;2023-05-10T13:29:30;5.20;;;2.65;;
36989;SDS011;22898;52.102;5.776;2023-05-10T13:31:56;4.28;;;2.53;;
36989;SDS011;22898;52.102;5.776;2023-05-10T13:34:24;3.42;;;2.15;;
36989;SDS011;22898;52.102;5.776;2023-05-10T13:36:49;5.63;;;2.42;;
36989;SDS011;22898;52.102;5.776;2023-05-10T13:39:15;4.18;;;2.25;;
36989;SDS011;22898;52.102;5.776;2023-05-10T13:41:41;2.30;;;1.40;;
36989;SDS011;22898;52.102;5.776;2023-05-10T13:44:07;2.53;;;1.45;;
36989;SDS011;22898;52.102;5.776;2023-05-10T13:46:32;3.10;;;1.67;;
36989;SDS011;22898;52.102;5.776;2023-05-10T13:48:58;2.15;;;1.58;;
36989;SDS011;22898;52.102;5.776;2023-05-10T13:51:23;4.97;;;1.52;;
36989;SDS011;22898;52.102;5.776;2023-05-10T13:53:49;3.38;;;1.65;;
36989;SDS011;22898;52.102;5.776;2023-05-10T13:56:15;3.58;;;2.10;;
36989;SDS011;22898;52.102;5.776;2023-05-10T13:58:40;3.55;;;2.28;;
36989;SDS011;22898;52.102;5.776;2023-05-10T14:01:06;2.80;;;1.90;;
36989;SDS011;22898;52.102;5.776;2023-05-10T14:03:32;3.28;;;1.80;;
36989;SDS011;22898;52.102;5.776;2023-05-10T14:05:58;2.30;;;1.75;;
36989;SDS011;22898;52.102;5.776;2023-05-10T14:08:23;1.95;;;1.48;;
36989;SDS011;22898;52.102;5.776;2023-05-10T14:10:49;1.77;;;1.42;;
36989;SDS011;22898;52.102;5.776;2023-05-10T14:13:15;1.38;;;1.08;;
36989;SDS011;22898;52.102;5.776;2023-05-10T14:15:42;3.03;;;1.85;;
36989;SDS011;22898;52.102;5.776;2023-05-10T14:18:07;2.13;;;1.92;;
36989;SDS011;22898;52.102;5.776;2023-05-10T14:20:33;2.40;;;1.52;;
36989;SDS011;22898;52.102;5.776;2023-05-10T14:22:59;2.67;;;1.83;;
36989;SDS011;22898;52.102;5.776;2023-05-10T14:25:25;1.83;;;1.35;;
36989;SDS011;22898;52.102;5.776;2023-05-10T14:27:50;3.13;;;1.67;;
36989;SDS011;22898;52.102;5.776;2023-05-10T14:30:19;3.72;;;1.85;;
36989;SDS011;22898;52.102;5.776;2023-05-10T14:32:44;2.15;;;1.60;;
36989;SDS011;22898;52.102;5.776;2023-05-10T14:35:10;1.83;;;1.30;;
36989;SDS011;22898;52.102;5.776;2023-05-10T14:37:36;1.80;;;1.30;;
36989;SDS011;22898;52.102;5.776;2023-05-10T14:40:01;1.67;;;1.52;;
36989;SDS011;22898;52.102;5.776;2023-05-10T14:42:29;2.15;;;1.73;;
36989;SDS011;22898;52.102;5.776;2023-05-10T14:44:56;2.55;;;1.75;;
36989;SDS011;22898;52.102;5.776;2023-05-10T14:47:21;4.20;;;1.40;;
36989;SDS011;22898;52.102;5.776;2023-05-10T14:49:47;2.00;;;1.58;;
36989;SDS011;22898;52.102;5.776;2023-05-10T14:52:13;2.85;;;1.42;;
36989;SDS011;22898;52.102;5.776;2023-05-10T14:54:39;1.73;;;1.20;;
36989;SDS011;22898;52.102;5.776;2023-05-10T14:57:05;3.35;;;1.55;;
36989;SDS011;22898;52.102;5.776;2023-05-10T14:59:31;1.67;;;1.20;;
36989;SDS011;22898;52.102;5.776;2023-05-10T15:01:57;3.33;;;0.85;;
36989;SDS011;22898;52.102;5.776;2023-05-10T15:04:23;2.25;;;1.13;;
36989;SDS011;22898;52.102;5.776;2023-05-10T15:06:49;1.10;;;1.05;;
36989;SDS011;22898;52.102;5.776;2023-05-10T15:09:14;1.77;;;1.20;;
36989;SDS011;22898;52.102;5.776;2023-05-10T15:11:41;1.77;;;1.20;;
36989;SDS011;22898;52.102;5.776;2023-05-10T15:14:06;1.67;;;1.35;;
36989;SDS011;22898;52.102;5.776;2023-05-10T15:16:32;1.13;;;0.93;;